createdAt,value
2022-08-05T00:01:20.114Z,6.00
2022-08-05T00:02:07.419Z,6.35
2022-08-05T00:03:08.368Z,5.89
2022-08-05T00:04:13.518Z,5.98
2022-08-05T00:06:02.663Z,6.68
2022-08-05T00:06:30.792Z,6.52
2022-08-05T00:08:00.147Z,6.39
2022-08-05T00:08:35.099Z,7.26
2022-08-05T00:09:36.736Z,6.17
2022-08-05T00:10:39.712Z,6.50
2022-08-05T00:11:49.211Z,7.37
2022-08-05T00:12:55.844Z,6.63
2022-08-05T00:13:53.214Z,6.43
2022-08-05T00:14:56.375Z,7.09
2022-08-05T00:16:00.477Z,6.35
2022-08-05T00:17:03.735Z,6.65
2022-08-05T00:18:08.672Z,6.79
2022-08-05T00:19:11.615Z,6.87
2022-08-05T00:20:20.417Z,6.38
2022-08-05T00:21:21.598Z,6.59
2022-08-05T00:22:24.470Z,7.00
2022-08-05T00:23:44.676Z,6.72
2022-08-05T00:24:32.620Z,6.65
2022-08-05T00:25:45.497Z,6.95
2022-08-05T00:26:46.713Z,6.98
2022-08-05T00:27:46.656Z,7.04
2022-08-05T00:28:50.330Z,6.22
2022-08-05T00:29:53.560Z,6.42
2022-08-05T00:31:02.798Z,6.91
2022-08-05T00:32:12.398Z,7.40
2022-08-05T00:34:42.281Z,6.63
2022-08-05T00:34:55.923Z,6.98
2022-08-05T00:35:21.766Z,6.69
2022-08-05T00:37:11.239Z,9.69
2022-08-05T00:37:50.823Z,6.79
2022-08-05T00:38:39.038Z,6.36
2022-08-05T00:39:44.150Z,6.96
2022-08-05T00:40:53.401Z,6.93
2022-08-05T00:41:56.460Z,6.86
2022-08-05T00:43:02.262Z,7.28
2022-08-05T00:44:05.872Z,7.63
2022-08-05T00:45:13.413Z,7.22
2022-08-05T00:46:14.809Z,7.92
2022-08-05T00:47:19.179Z,7.61
2022-08-05T00:48:27.441Z,7.19
2022-08-05T00:49:28.078Z,7.74
2022-08-05T00:50:34.596Z,7.46
2022-08-05T00:51:51.598Z,7.30
2022-08-05T00:52:45.383Z,7.37
2022-08-05T00:54:02.499Z,7.43
2022-08-05T00:54:54.593Z,7.68
2022-08-05T00:55:59.210Z,7.48
2022-08-05T00:57:03.923Z,6.62
2022-08-05T00:58:07.107Z,7.15
2022-08-05T00:59:12.114Z,7.48
2022-08-05T01:00:17.188Z,6.55
2022-08-05T01:01:42.220Z,7.02
2022-08-05T01:02:27.145Z,7.46
2022-08-05T01:03:31.006Z,7.26
2022-08-05T01:04:36.370Z,7.04
2022-08-05T01:05:41.323Z,7.32
2022-08-05T01:06:48.679Z,7.75
2022-08-05T01:08:41.929Z,7.24
2022-08-05T01:08:57.545Z,7.53
2022-08-05T01:10:02.803Z,7.34
2022-08-05T01:11:11.235Z,7.42
2022-08-05T01:12:19.620Z,7.37
2022-08-05T01:13:57.734Z,7.02
2022-08-05T01:15:05.771Z,7.17
2022-08-05T01:16:14.674Z,7.64
2022-08-05T01:17:32.226Z,7.36
2022-08-05T01:18:40.670Z,8.31
2022-08-05T01:20:00.995Z,6.87
2022-08-05T01:21:12.100Z,8.19
2022-08-05T01:22:38.530Z,8.07
2022-08-05T01:24:13.098Z,8.61
2022-08-05T01:25:54.262Z,8.04
2022-08-05T01:27:34.590Z,7.60
2022-08-05T01:28:48.491Z,7.59
2022-08-05T01:29:55.064Z,6.75
2022-08-05T01:31:18.439Z,7.44
2022-08-05T01:32:24.608Z,7.15
2022-08-05T01:33:35.166Z,7.94
2022-08-05T01:34:42.383Z,7.62
2022-08-05T01:35:52.193Z,7.56
2022-08-05T01:37:00.620Z,7.65
2022-08-05T01:38:04.753Z,7.69
2022-08-05T01:39:08.549Z,7.37
2022-08-05T01:40:14.474Z,7.45
2022-08-05T01:41:22.381Z,7.68
2022-08-05T01:42:30.966Z,7.98
2022-08-05T01:43:37.079Z,8.17
2022-08-05T01:44:43.880Z,8.31
2022-08-05T01:45:56.255Z,7.55
2022-08-05T01:46:55.280Z,8.17
2022-08-05T01:48:00.456Z,7.78
2022-08-05T01:49:23.383Z,7.73
2022-08-05T01:50:32.622Z,7.71
2022-08-05T01:51:36.622Z,7.37
2022-08-05T01:52:42.607Z,7.02
2022-08-05T01:53:57.757Z,7.22
2022-08-05T01:54:57.928Z,7.77
2022-08-05T01:56:04.544Z,7.54
2022-08-05T01:58:12.658Z,8.12
2022-08-05T01:58:16.100Z,7.18
2022-08-05T01:59:23.255Z,7.63
2022-08-05T02:00:30.383Z,7.24
2022-08-05T02:01:40.244Z,7.25
2022-08-05T02:02:46.491Z,7.30
2022-08-05T02:03:50.649Z,7.78
2022-08-05T02:04:56.235Z,7.38
2022-08-05T02:06:03.546Z,7.20
2022-08-05T02:07:06.698Z,7.36
2022-08-05T02:08:10.500Z,7.22
2022-08-05T02:09:16.304Z,7.59
2022-08-05T02:10:20.287Z,7.53
2022-08-05T02:11:33.671Z,7.29
2022-08-05T02:12:59.077Z,7.68
2022-08-05T02:14:14.758Z,7.23
2022-08-05T02:15:23.099Z,8.06
2022-08-05T02:16:32.354Z,8.68
2022-08-05T02:18:28.338Z,8.02
2022-08-05T02:18:49.904Z,7.32
2022-08-05T02:19:56.831Z,7.43
2022-08-05T02:21:15.656Z,6.87
2022-08-05T02:22:33.838Z,7.69
2022-08-05T02:23:40.938Z,7.08
2022-08-05T02:24:53.157Z,7.09
2022-08-05T02:25:59.350Z,7.33
2022-08-05T02:27:10.077Z,7.39
2022-08-05T02:28:14.528Z,7.53
2022-08-05T02:29:26.146Z,8.21
2022-08-05T02:30:29.995Z,7.34
2022-08-05T02:31:35.353Z,8.08
2022-08-05T02:32:39.952Z,8.99
2022-08-05T02:33:57.859Z,7.38
2022-08-05T02:35:13.718Z,8.62
2022-08-05T02:36:13.489Z,7.44
2022-08-05T02:37:17.144Z,6.66
2022-08-05T02:38:21.077Z,7.02
2022-08-05T02:39:29.199Z,7.27
2022-08-05T02:40:32.893Z,7.62
2022-08-05T02:41:57.821Z,7.58
2022-08-05T02:42:52.835Z,7.68
2022-08-05T02:44:02.651Z,7.55
2022-08-05T02:44:58.602Z,7.69
2022-08-05T02:46:02.348Z,7.39
2022-08-05T02:47:08.654Z,6.99
2022-08-05T02:48:13.870Z,6.67
2022-08-05T02:49:17.747Z,10.81
2022-08-05T02:50:24.140Z,7.16
2022-08-05T02:51:28.536Z,6.98
2022-08-05T02:52:33.376Z,7.16
2022-08-05T02:53:40.392Z,6.84
2022-08-05T02:54:51.957Z,7.02
2022-08-05T02:55:59.662Z,7.11
2022-08-05T02:56:59.513Z,7.08
2022-08-05T02:58:11.929Z,7.29
2022-08-05T02:59:10.814Z,7.26
2022-08-05T03:00:14.924Z,6.45
2022-08-05T03:01:21.543Z,6.56
2022-08-05T03:02:28.170Z,6.87
2022-08-05T03:03:33.951Z,6.74
2022-08-05T03:04:39.008Z,7.58
2022-08-05T03:06:54.783Z,6.29
2022-08-05T03:06:56.887Z,6.64
2022-08-05T03:08:07.164Z,6.63
2022-08-05T03:08:58.847Z,6.67
2022-08-05T03:10:04.058Z,6.80
2022-08-05T03:11:57.412Z,6.86
2022-08-05T03:12:35.946Z,6.88
2022-08-05T03:13:51.018Z,6.44
2022-08-05T03:14:46.031Z,6.36
2022-08-05T03:15:49.231Z,6.22
2022-08-05T03:16:54.208Z,9.22
2022-08-05T03:17:57.983Z,6.06
2022-08-05T03:19:12.885Z,6.34
2022-08-05T03:20:10.145Z,5.81
2022-08-05T03:21:13.540Z,5.51
2022-08-05T03:22:19.040Z,5.77
2022-08-05T03:23:24.143Z,5.62
2022-08-05T03:24:30.215Z,6.84
2022-08-05T03:26:04.641Z,6.30
2022-08-05T03:26:38.569Z,6.62
2022-08-05T03:28:00.200Z,7.47
2022-08-05T03:28:46.858Z,10.41
2022-08-05T03:30:07.801Z,5.82
2022-08-05T03:30:57.293Z,5.57
2022-08-05T03:32:00.820Z,7.56
2022-08-05T03:33:06.105Z,5.56
2022-08-05T03:34:10.385Z,5.83
2022-08-05T03:35:13.919Z,5.87
2022-08-05T03:36:16.989Z,5.97
2022-08-05T03:37:22.581Z,6.22
2022-08-05T03:38:33.181Z,6.16
2022-08-05T03:39:38.129Z,7.14
2022-08-05T03:40:45.287Z,6.24
2022-08-05T03:41:47.363Z,6.87
2022-08-05T03:42:53.078Z,6.10
2022-08-05T03:44:10.016Z,6.28
2022-08-05T03:45:03.475Z,6.11
2022-08-05T03:46:08.257Z,5.37
2022-08-05T03:47:20.412Z,8.39
2022-08-05T03:48:16.539Z,5.93
2022-08-05T03:49:24.240Z,4.99
2022-08-05T03:50:49.145Z,5.22
2022-08-05T03:52:48.659Z,6.26
2022-08-05T03:55:53.478Z,6.87
2022-08-05T03:55:54.206Z,4.87
2022-08-05T03:56:09.852Z,5.61
2022-08-05T03:56:46.364Z,9.11
2022-08-05T03:57:52.365Z,6.06
2022-08-05T03:58:59.716Z,5.13
2022-08-05T04:00:09.447Z,6.09
2022-08-05T04:01:20.910Z,11.79
2022-08-05T04:02:38.993Z,5.44
2022-08-05T04:03:37.991Z,6.13
2022-08-05T04:04:43.429Z,6.12
2022-08-05T04:05:49.290Z,6.01
2022-08-05T04:06:52.880Z,7.00
2022-08-05T04:07:57.860Z,5.50
2022-08-05T04:09:05.171Z,9.55
2022-08-05T04:10:10.239Z,6.01
2022-08-05T04:11:15.929Z,5.08
2022-08-05T04:12:24.438Z,6.34
2022-08-05T04:13:25.451Z,5.34
2022-08-05T04:14:31.492Z,5.27
2022-08-05T04:15:36.285Z,7.12
2022-08-05T04:16:39.714Z,5.80
2022-08-05T04:17:56.216Z,4.92
2022-08-05T04:18:54.203Z,5.44
2022-08-05T04:19:54.696Z,6.04
2022-08-05T04:20:59.230Z,7.56
2022-08-05T04:22:10.196Z,5.59
2022-08-05T04:23:12.530Z,5.12
2022-08-05T04:24:18.672Z,5.34
2022-08-05T04:25:19.392Z,4.64
2022-08-05T04:26:24.696Z,4.93
2022-08-05T04:27:33.257Z,6.22
2022-08-05T04:28:32.930Z,6.76
2022-08-05T04:29:36.439Z,5.40
2022-08-05T04:30:40.938Z,4.89
2022-08-05T04:31:48.185Z,5.17
2022-08-05T04:32:50.740Z,5.29
2022-08-05T04:34:18.238Z,5.57
2022-08-05T04:34:58.692Z,6.76
2022-08-05T04:36:16.596Z,5.31
2022-08-05T04:37:06.636Z,7.34
2022-08-05T04:38:09.756Z,4.61
2022-08-05T04:39:14.768Z,5.20
2022-08-05T04:40:19.350Z,4.99
2022-08-05T04:41:22.906Z,5.72
2022-08-05T04:42:29.140Z,5.76
2022-08-05T04:43:32.254Z,10.99
2022-08-05T04:44:36.161Z,5.66
2022-08-05T04:45:48.903Z,4.66
2022-08-05T04:46:48.435Z,8.81
2022-08-05T04:47:49.412Z,5.09
2022-08-05T04:48:52.865Z,4.99
2022-08-05T04:50:01.320Z,4.90
2022-08-05T04:51:02.391Z,5.30
2022-08-05T04:52:06.159Z,4.96
2022-08-05T04:53:12.566Z,7.73
2022-08-05T04:54:18.995Z,4.89
2022-08-05T04:56:14.285Z,4.70
2022-08-05T04:56:34.342Z,5.12
2022-08-05T04:57:37.200Z,4.31
2022-08-05T04:58:36.870Z,4.60
2022-08-05T04:59:40.891Z,4.63
2022-08-05T05:00:44.570Z,4.68
2022-08-05T05:02:35.380Z,4.91
2022-08-05T05:02:57.353Z,5.46
2022-08-05T05:04:00.627Z,5.49
2022-08-05T05:05:04.582Z,10.94
2022-08-05T05:06:38.680Z,5.46
2022-08-05T05:07:17.045Z,4.77
2022-08-05T05:08:29.958Z,4.38
2022-08-05T05:09:25.278Z,5.23
2022-08-05T05:10:33.377Z,4.78
2022-08-05T05:11:53.084Z,4.46
2022-08-05T05:12:41.175Z,6.24
2022-08-05T05:13:44.576Z,5.59
2022-08-05T05:14:50.832Z,4.71
2022-08-05T05:16:01.750Z,4.99
2022-08-05T05:16:57.603Z,4.53
2022-08-05T05:18:01.183Z,5.16
2022-08-05T05:19:18.577Z,4.99
2022-08-05T05:20:10.515Z,4.43
2022-08-05T05:21:13.652Z,7.47
2022-08-05T05:22:24.669Z,5.19
2022-08-05T05:23:21.564Z,4.33
2022-08-05T05:24:56.113Z,5.34
2022-08-05T05:25:40.350Z,5.02
2022-08-05T05:26:35.132Z,4.76
2022-08-05T05:27:44.254Z,4.99
2022-08-05T05:28:45.056Z,4.89
2022-08-05T05:30:04.890Z,5.34
2022-08-05T05:30:53.330Z,5.13
2022-08-05T05:31:56.595Z,6.18
2022-08-05T05:33:16.958Z,7.56
2022-08-05T05:34:20.019Z,5.18
2022-08-05T05:35:22.273Z,4.90
2022-08-05T05:36:25.662Z,4.88
2022-08-05T05:37:59.127Z,5.34
2022-08-05T05:38:35.442Z,5.52
2022-08-05T05:39:38.520Z,6.26
2022-08-05T05:40:49.782Z,5.21
2022-08-05T05:41:54.477Z,4.69
2022-08-05T05:42:53.914Z,5.91
2022-08-05T05:44:00.515Z,4.29
2022-08-05T05:45:03.026Z,5.34
2022-08-05T05:46:13.746Z,4.76
2022-08-05T05:47:13.249Z,4.85
2022-08-05T05:48:16.947Z,4.42
2022-08-05T05:49:22.971Z,4.49
2022-08-05T05:50:25.855Z,5.43
2022-08-05T05:51:28.943Z,4.61
2022-08-05T05:52:37.969Z,4.82
2022-08-05T05:53:54.479Z,4.54
2022-08-05T05:54:50.647Z,4.59
2022-08-05T05:55:52.013Z,4.45
2022-08-05T05:56:53.421Z,4.19
2022-08-05T05:57:56.373Z,5.18
2022-08-05T05:59:07.391Z,5.77
2022-08-05T06:00:15.756Z,4.96
2022-08-05T06:01:19.458Z,3.98
2022-08-05T06:02:36.768Z,4.93
2022-08-05T06:03:54.403Z,4.46
2022-08-05T06:04:34.495Z,4.64
2022-08-05T06:05:37.762Z,4.29
2022-08-05T06:06:47.617Z,4.29
2022-08-05T06:08:01.192Z,4.36
2022-08-05T06:08:54.434Z,5.14
2022-08-05T06:10:00.572Z,4.70
2022-08-05T06:11:02.236Z,4.53
2022-08-05T06:12:09.736Z,4.32
2022-08-05T06:13:12.884Z,4.34
2022-08-05T06:14:16.081Z,4.71
2022-08-05T06:15:23.684Z,4.70
2022-08-05T06:16:29.067Z,4.11
2022-08-05T06:17:30.985Z,5.01
2022-08-05T06:18:36.478Z,5.26
2022-08-05T06:19:38.882Z,5.22
2022-08-05T06:20:42.015Z,4.82
2022-08-05T06:21:49.942Z,4.60
2022-08-05T06:22:51.850Z,5.06
2022-08-05T06:23:55.112Z,5.20
2022-08-05T06:24:58.399Z,4.42
2022-08-05T06:26:20.673Z,4.06
2022-08-05T06:27:06.443Z,4.99
2022-08-05T06:28:21.232Z,5.04
2022-08-05T06:29:25.434Z,5.40
2022-08-05T06:30:21.529Z,4.77
2022-08-05T06:31:30.512Z,4.56
2022-08-05T06:32:30.769Z,4.88
2022-08-05T06:34:07.817Z,5.17
2022-08-05T06:34:39.159Z,4.68
2022-08-05T06:36:05.647Z,5.60
2022-08-05T06:36:56.896Z,5.11
2022-08-05T06:37:57.617Z,4.82
2022-08-05T06:38:59.000Z,4.71
2022-08-05T06:40:02.586Z,5.56
2022-08-05T06:41:08.223Z,4.79
2022-08-05T06:42:12.830Z,4.72
2022-08-05T06:43:57.835Z,4.36
2022-08-05T06:44:22.010Z,4.98
2022-08-05T06:45:44.508Z,4.87
2022-08-05T06:46:30.669Z,5.37
2022-08-05T06:48:36.869Z,6.31
2022-08-05T06:48:54.581Z,4.92
2022-08-05T06:50:01.239Z,4.79
2022-08-05T06:50:49.935Z,4.67
2022-08-05T06:51:53.270Z,4.99
2022-08-05T06:53:03.979Z,4.69
2022-08-05T06:54:03.521Z,4.22
2022-08-05T06:55:07.507Z,4.81
2022-08-05T06:56:26.656Z,4.77
2022-08-05T06:57:58.247Z,4.79
2022-08-05T06:58:35.346Z,5.01
2022-08-05T06:59:27.405Z,4.26
2022-08-05T07:00:31.140Z,5.12
2022-08-05T07:01:34.135Z,4.62
2022-08-05T07:02:44.826Z,4.64
2022-08-05T07:03:48.186Z,4.57
2022-08-05T07:04:51.112Z,4.11
2022-08-05T07:05:54.995Z,5.33
2022-08-05T07:06:59.781Z,5.37
2022-08-05T07:08:02.902Z,5.13
2022-08-05T07:09:07.409Z,4.58
2022-08-05T07:10:10.985Z,5.91
2022-08-05T07:11:17.012Z,5.63
2022-08-05T07:12:40.404Z,6.21
2022-08-05T07:14:03.884Z,7.89
2022-08-05T07:15:34.745Z,8.08
2022-08-05T07:18:02.048Z,4.61
2022-08-05T07:18:02.210Z,4.72
2022-08-05T07:18:52.349Z,4.74
2022-08-05T07:20:32.279Z,8.08
2022-08-05T07:21:04.662Z,4.68
2022-08-05T07:22:06.528Z,4.72
2022-08-05T07:23:12.981Z,5.02
2022-08-05T07:24:18.453Z,4.08
2022-08-05T07:25:56.012Z,4.81
2022-08-05T07:26:29.069Z,4.83
2022-08-05T07:27:58.240Z,4.63
2022-08-05T07:28:38.854Z,4.46
2022-08-05T07:30:22.330Z,4.31
2022-08-05T07:30:52.893Z,5.44
2022-08-05T07:31:54.930Z,4.35
2022-08-05T07:32:58.418Z,3.94
2022-08-05T07:34:01.477Z,3.69
2022-08-05T07:36:04.135Z,4.38
2022-08-05T07:36:21.157Z,4.04
2022-08-05T07:37:21.261Z,3.59
2022-08-05T07:38:33.775Z,3.43
2022-08-05T07:40:04.400Z,3.98
2022-08-05T07:40:35.512Z,4.89
2022-08-05T07:42:13.980Z,4.12
2022-08-05T07:42:44.555Z,4.59
2022-08-05T07:43:47.550Z,3.04
2022-08-05T07:44:50.678Z,4.50
2022-08-05T07:45:57.067Z,5.71
2022-08-05T07:46:58.490Z,4.04
2022-08-05T07:48:03.977Z,3.44
2022-08-05T07:49:08.899Z,4.12
2022-08-05T07:50:12.188Z,3.05
2022-08-05T07:51:23.651Z,4.18
2022-08-05T07:52:23.951Z,4.17
2022-08-05T07:53:26.938Z,6.43
2022-08-05T07:54:38.574Z,8.12
2022-08-05T07:55:46.666Z,4.49
2022-08-05T07:57:01.988Z,2.72
2022-08-05T07:57:56.204Z,3.53
2022-08-05T07:58:57.851Z,2.73
2022-08-05T07:59:57.508Z,3.79
2022-08-05T08:01:00.711Z,2.96
2022-08-05T08:02:07.144Z,2.80
2022-08-05T08:03:15.150Z,3.67
2022-08-05T08:04:17.767Z,4.77
2022-08-05T08:05:22.814Z,3.19
2022-08-05T08:06:28.179Z,3.60
2022-08-05T08:07:39.748Z,5.48
2022-08-05T08:08:36.377Z,2.82
2022-08-05T08:09:40.464Z,3.32
2022-08-05T08:10:43.523Z,3.34
2022-08-05T08:11:54.195Z,3.41
2022-08-05T08:12:53.213Z,3.32
2022-08-05T08:14:00.620Z,3.02
2022-08-05T08:15:02.116Z,4.04
2022-08-05T08:16:35.167Z,4.06
2022-08-05T08:17:11.115Z,2.77
2022-08-05T08:18:20.932Z,3.26
2022-08-05T08:20:10.172Z,4.31
2022-08-05T08:20:44.033Z,4.32
2022-08-05T08:21:33.792Z,3.06
2022-08-05T08:22:36.822Z,3.63
2022-08-05T08:24:01.510Z,3.34
2022-08-05T08:24:51.923Z,3.29
2022-08-05T08:25:59.878Z,2.84
2022-08-05T08:26:54.860Z,3.77
2022-08-05T08:27:59.040Z,4.17
2022-08-05T08:29:22.209Z,3.69
2022-08-05T08:30:28.496Z,3.09
2022-08-05T08:31:17.543Z,3.42
2022-08-05T08:32:27.864Z,3.71
2022-08-05T08:33:25.540Z,3.59
2022-08-05T08:34:33.233Z,5.89
2022-08-05T08:35:41.110Z,3.35
2022-08-05T08:36:49.027Z,3.21
2022-08-05T08:37:46.717Z,4.13
2022-08-05T08:38:53.596Z,4.72
2022-08-05T08:39:56.793Z,7.33
2022-08-05T08:41:00.806Z,3.71
2022-08-05T08:42:10.800Z,3.81
2022-08-05T08:45:16.725Z,3.57
2022-08-05T08:45:17.760Z,4.61
2022-08-05T08:45:29.891Z,3.24
2022-08-05T08:46:32.101Z,3.34
2022-08-05T08:48:05.437Z,3.92
2022-08-05T08:49:08.062Z,3.76
2022-08-05T08:50:05.915Z,3.66
2022-08-05T08:51:22.205Z,3.39
2022-08-05T08:52:13.580Z,4.09
2022-08-05T08:53:16.019Z,4.08
2022-08-05T08:54:19.369Z,3.71
2022-08-05T08:56:02.848Z,3.40
2022-08-05T08:56:29.446Z,4.71
2022-08-05T08:57:48.343Z,4.28
2022-08-05T08:58:44.532Z,4.07
2022-08-05T08:59:47.152Z,4.42
2022-08-05T09:00:51.334Z,4.05
2022-08-05T09:01:57.513Z,3.56
2022-08-05T09:03:00.765Z,5.53
2022-08-05T09:04:03.841Z,3.94
2022-08-05T09:05:17.977Z,4.51
2022-08-05T09:06:21.242Z,4.31
2022-08-05T09:07:29.227Z,4.26
2022-08-05T09:08:27.468Z,3.97
2022-08-05T09:09:34.768Z,6.23
2022-08-05T09:10:36.845Z,3.48
2022-08-05T09:11:50.956Z,4.08
2022-08-05T09:12:50.987Z,4.09
2022-08-05T09:14:09.702Z,5.18
2022-08-05T09:15:06.019Z,3.66
2022-08-05T09:16:07.500Z,4.68
2022-08-05T09:17:40.811Z,4.67
2022-08-05T09:18:17.675Z,4.68
2022-08-05T09:19:20.994Z,5.31
2022-08-05T09:20:37.762Z,5.86
2022-08-05T09:22:22.078Z,5.17
2022-08-05T09:23:19.839Z,5.49
2022-08-05T09:24:19.449Z,4.39
2022-08-05T09:25:24.296Z,5.17
2022-08-05T09:26:32.293Z,6.48
2022-08-05T09:28:05.338Z,9.93
2022-08-05T09:28:40.424Z,5.60
2022-08-05T09:29:48.953Z,6.40
2022-08-05T09:30:56.297Z,4.52
2022-08-05T09:32:40.771Z,4.58
2022-08-05T09:33:08.452Z,4.17
2022-08-05T09:34:13.464Z,4.63
2022-08-05T09:35:26.312Z,4.10
2022-08-05T09:36:27.484Z,4.69
2022-08-05T09:38:17.603Z,3.96
2022-08-05T09:38:34.270Z,5.45
2022-08-05T09:39:45.116Z,7.67
2022-08-05T09:40:44.567Z,4.82
2022-08-05T09:42:00.986Z,6.08
2022-08-05T09:43:08.582Z,4.96
2022-08-05T09:44:13.590Z,4.48
2022-08-05T09:46:04.945Z,4.35
2022-08-05T09:46:30.452Z,3.87
2022-08-05T09:47:36.303Z,4.97
2022-08-05T09:48:38.837Z,4.72
2022-08-05T09:50:00.436Z,5.39
2022-08-05T09:50:58.439Z,4.56
2022-08-05T09:52:18.925Z,4.28
2022-08-05T09:53:26.029Z,4.74
2022-08-05T09:54:34.857Z,4.56
2022-08-05T09:55:56.875Z,8.24
2022-08-05T09:56:51.398Z,4.61
2022-08-05T09:57:49.916Z,6.03
2022-08-05T09:59:04.226Z,5.34
2022-08-05T10:00:11.935Z,8.18
2022-08-05T10:01:32.034Z,9.19
2022-08-05T10:02:36.960Z,5.08
2022-08-05T10:04:02.318Z,7.22
2022-08-05T10:05:13.262Z,6.38
2022-08-05T10:08:11.142Z,9.26
2022-08-05T10:08:35.741Z,6.16
2022-08-05T10:09:45.254Z,5.54
2022-08-05T10:10:45.333Z,7.22
2022-08-05T10:11:50.805Z,6.02
2022-08-05T10:12:56.743Z,6.44
2022-08-05T10:13:59.888Z,5.64
2022-08-05T10:15:25.842Z,5.82
2022-08-05T10:16:42.063Z,6.22
2022-08-05T10:17:44.530Z,5.85
2022-08-05T10:18:45.012Z,5.37
2022-08-05T10:20:04.533Z,4.94
2022-08-05T10:20:57.125Z,5.53
2022-08-05T10:22:00.267Z,7.86
2022-08-05T10:23:03.938Z,4.36
2022-08-05T10:24:11.437Z,11.24
2022-08-05T10:25:14.588Z,4.66
2022-08-05T10:26:18.141Z,4.15
2022-08-05T10:27:38.690Z,3.58
2022-08-05T10:28:29.716Z,4.36
2022-08-05T10:30:40.880Z,4.58
2022-08-05T10:32:49.350Z,3.65
2022-08-05T10:32:52.922Z,3.60
2022-08-05T10:33:01.840Z,3.83
2022-08-05T10:33:54.789Z,3.27
2022-08-05T10:35:00.942Z,5.38
2022-08-05T10:36:05.133Z,4.09
2022-08-05T10:37:08.324Z,3.78
2022-08-05T10:38:13.316Z,2.81
2022-08-05T10:39:25.053Z,3.14
2022-08-05T10:40:38.981Z,8.12
2022-08-05T10:42:01.319Z,2.88
2022-08-05T10:43:13.950Z,2.30
2022-08-05T10:44:18.993Z,3.35
2022-08-05T10:45:41.983Z,1.98
2022-08-05T10:46:50.579Z,2.07
2022-08-05T10:48:29.948Z,1.95
2022-08-05T10:49:06.432Z,2.38
2022-08-05T10:50:31.722Z,1.97
2022-08-05T10:52:47.061Z,2.97
2022-08-05T10:53:55.215Z,1.98
2022-08-05T10:55:07.362Z,1.67
2022-08-05T10:56:21.129Z,2.12
2022-08-05T10:57:29.533Z,1.99
2022-08-05T10:58:36.159Z,1.91
2022-08-05T11:00:03.392Z,2.16
2022-08-05T11:00:47.721Z,2.11
2022-08-05T11:02:14.503Z,1.99
2022-08-05T11:03:25.251Z,1.74
2022-08-05T11:04:23.154Z,1.86
2022-08-05T11:05:29.309Z,2.07
2022-08-05T11:06:34.574Z,2.16
2022-08-05T11:08:02.693Z,2.19
2022-08-05T11:09:32.134Z,1.77
2022-08-05T11:10:29.275Z,1.97
2022-08-05T11:11:44.647Z,2.33
2022-08-05T11:12:45.240Z,2.08
2022-08-05T11:13:54.772Z,2.21
2022-08-05T11:15:19.113Z,2.96
2022-08-05T11:16:33.729Z,2.71
2022-08-05T11:17:59.654Z,3.16
2022-08-05T11:18:37.041Z,3.58
2022-08-05T11:20:17.163Z,4.29
2022-08-05T11:20:51.852Z,3.22
2022-08-05T11:21:56.273Z,3.09
2022-08-05T11:23:08.765Z,3.59
2022-08-05T11:24:29.870Z,5.22
2022-08-05T11:26:04.381Z,3.18
2022-08-05T11:26:40.565Z,4.14
2022-08-05T11:27:51.709Z,2.91
2022-08-05T11:28:52.964Z,2.82
2022-08-05T11:30:01.931Z,5.30
2022-08-05T11:31:11.301Z,3.11
2022-08-05T11:32:27.751Z,3.00
2022-08-05T11:33:43.789Z,4.28
2022-08-05T11:34:51.875Z,3.11
2022-08-05T11:36:04.462Z,3.24
2022-08-05T11:37:02.772Z,3.19
2022-08-05T11:38:29.986Z,4.33
2022-08-05T11:39:17.939Z,4.31
2022-08-05T11:40:34.996Z,3.60
2022-08-05T11:42:00.745Z,4.27
2022-08-05T11:42:46.196Z,4.05
2022-08-05T11:44:07.343Z,4.09
2022-08-05T11:45:14.226Z,3.92
2022-08-05T11:46:27.019Z,3.91
2022-08-05T11:47:49.803Z,3.91
2022-08-05T11:48:29.361Z,4.05
2022-08-05T11:49:34.004Z,6.02
2022-08-05T11:50:38.908Z,3.87
2022-08-05T11:51:49.419Z,4.24
2022-08-05T11:52:54.350Z,4.14
2022-08-05T11:53:56.615Z,4.19
2022-08-05T11:55:07.603Z,4.12
2022-08-05T11:56:06.767Z,7.72
2022-08-05T11:57:24.984Z,3.76
2022-08-05T11:58:26.232Z,3.78
2022-08-05T11:59:33.146Z,4.14
2022-08-05T12:00:38.986Z,3.56
2022-08-05T12:02:05.291Z,6.15
2022-08-05T12:03:23.727Z,3.59
2022-08-05T12:04:23.527Z,9.66
2022-08-05T12:05:36.253Z,4.06
2022-08-05T12:06:35.432Z,4.82
2022-08-05T12:08:09.060Z,4.43
2022-08-05T12:08:55.832Z,3.45
2022-08-05T12:10:09.039Z,4.02
2022-08-05T12:11:08.901Z,3.57
2022-08-05T12:12:12.380Z,4.21
2022-08-05T12:13:27.946Z,3.46
2022-08-05T12:14:24.216Z,4.01
2022-08-05T12:15:34.618Z,3.83
2022-08-05T12:16:38.566Z,3.31
2022-08-05T12:18:09.937Z,3.59
2022-08-05T12:18:49.319Z,3.95
2022-08-05T12:20:26.767Z,4.21
2022-08-05T12:21:11.614Z,3.39
2022-08-05T12:22:20.023Z,3.52
2022-08-05T12:23:22.796Z,3.86
2022-08-05T12:24:25.807Z,3.59
2022-08-05T12:25:28.923Z,3.99
2022-08-05T12:26:38.677Z,4.65
2022-08-05T12:27:53.134Z,3.95
2022-08-05T12:28:48.546Z,3.48
2022-08-05T12:30:03.635Z,4.24
2022-08-05T12:31:06.683Z,3.78
2022-08-05T12:32:09.832Z,3.78
2022-08-05T12:33:27.328Z,4.49
2022-08-05T12:35:24.381Z,3.60
2022-08-05T12:36:30.013Z,3.67
2022-08-05T12:37:35.202Z,4.15
2022-08-05T12:38:41.395Z,4.30
2022-08-05T12:39:44.909Z,4.69
2022-08-05T12:40:50.248Z,4.06
2022-08-05T12:43:11.186Z,4.19
2022-08-05T12:44:28.472Z,4.98
2022-08-05T12:56:34.948Z,3.79
2022-08-05T12:57:23.413Z,3.62
2022-08-05T12:58:52.425Z,3.15
2022-08-05T13:00:08.914Z,3.44
2022-08-05T13:02:03.767Z,3.37
2022-08-05T13:02:07.167Z,3.21
2022-08-05T13:03:14.684Z,4.03
2022-08-05T13:04:20.977Z,3.01
2022-08-05T13:05:24.353Z,3.39
2022-08-05T13:06:29.398Z,3.56
2022-08-05T13:07:59.267Z,3.22
2022-08-05T13:08:40.115Z,4.62
2022-08-05T13:11:04.134Z,4.81
2022-08-05T13:12:16.216Z,3.82
2022-08-05T13:14:05.398Z,3.75
2022-08-05T13:14:36.279Z,4.21
2022-08-05T13:15:42.220Z,3.71
2022-08-05T13:16:51.308Z,4.06
2022-08-05T13:17:55.538Z,3.87
2022-08-05T13:19:01.229Z,3.93
2022-08-05T13:20:17.268Z,3.75
2022-08-05T13:21:21.247Z,3.69
2022-08-05T13:22:27.985Z,3.49
2022-08-05T13:23:29.697Z,3.68
2022-08-05T13:24:57.169Z,3.77
2022-08-05T13:25:52.412Z,3.59
2022-08-05T13:26:50.782Z,3.36
2022-08-05T13:27:53.687Z,3.48
2022-08-05T13:28:56.838Z,3.53
2022-08-05T13:30:34.953Z,3.72
2022-08-05T13:31:11.099Z,3.66
2022-08-05T13:32:10.034Z,6.81
2022-08-05T13:33:14.303Z,3.50
2022-08-05T13:34:24.353Z,3.30
2022-08-05T13:35:31.397Z,3.38
2022-08-05T13:36:28.590Z,3.97
2022-08-05T13:37:34.802Z,3.75
2022-08-05T13:38:42.512Z,2.83
2022-08-05T13:40:14.996Z,3.54
2022-08-05T13:40:51.412Z,4.02
2022-08-05T13:41:52.719Z,3.71
2022-08-05T13:42:56.311Z,4.81
2022-08-05T13:43:59.704Z,3.69
2022-08-05T13:45:03.552Z,3.46
2022-08-05T13:46:08.669Z,3.48
2022-08-05T13:47:11.782Z,3.63
2022-08-05T13:48:58.358Z,3.15
2022-08-05T13:49:21.506Z,3.43
2022-08-05T13:50:24.671Z,3.88
2022-08-05T13:51:40.096Z,3.56
2022-08-05T13:52:36.454Z,3.77
2022-08-05T13:53:47.852Z,3.49
2022-08-05T13:54:53.638Z,3.21
2022-08-05T13:55:58.757Z,3.14
2022-08-05T13:56:54.982Z,3.57
2022-08-05T13:57:57.956Z,3.01
2022-08-05T13:59:06.178Z,7.06
2022-08-05T14:00:07.253Z,3.43
2022-08-05T14:01:12.062Z,4.86
2022-08-05T14:02:19.868Z,3.52
2022-08-05T14:03:20.342Z,3.69
2022-08-05T14:04:42.021Z,3.37
2022-08-05T14:06:24.686Z,3.26
2022-08-05T14:07:12.010Z,3.41
2022-08-05T14:08:04.346Z,3.78
2022-08-05T14:09:01.018Z,3.44
2022-08-05T14:10:08.381Z,3.42
2022-08-05T14:11:20.201Z,3.33
2022-08-05T14:12:18.132Z,4.37
2022-08-05T14:13:21.275Z,5.84
2022-08-05T14:14:32.318Z,3.48
2022-08-05T14:16:04.313Z,3.06
2022-08-05T14:16:36.149Z,4.63
2022-08-05T14:17:39.310Z,3.52
2022-08-05T14:18:42.486Z,3.86
2022-08-05T14:19:55.210Z,4.72
2022-08-05T14:20:54.738Z,10.95
2022-08-05T14:22:10.025Z,3.59
2022-08-05T14:23:00.957Z,3.47
2022-08-05T14:24:07.600Z,4.58
2022-08-05T14:25:21.872Z,4.01
2022-08-05T14:26:35.711Z,3.45
2022-08-05T14:27:21.035Z,3.57
2022-08-05T14:28:26.323Z,3.59
2022-08-05T14:29:29.242Z,3.56
2022-08-05T14:30:34.030Z,3.14
2022-08-05T14:32:02.217Z,3.18
2022-08-05T14:32:43.987Z,3.35
2022-08-05T14:33:59.593Z,3.21
2022-08-05T14:34:52.174Z,3.08
2022-08-05T14:35:55.203Z,2.91
2022-08-05T14:36:58.278Z,3.22
2022-08-05T14:38:02.214Z,3.02
2022-08-05T14:39:05.780Z,3.37
2022-08-05T14:40:13.982Z,4.67
2022-08-05T14:41:17.834Z,3.23
2022-08-05T14:42:22.041Z,3.29
2022-08-05T14:44:02.083Z,3.27
2022-08-05T14:44:30.185Z,3.38
2022-08-05T14:45:33.337Z,3.27
2022-08-05T14:46:36.854Z,3.12
2022-08-05T14:48:04.093Z,3.52
2022-08-05T14:48:49.313Z,3.64
2022-08-05T14:49:59.528Z,2.99
2022-08-05T14:50:56.136Z,3.27
2022-08-05T14:51:59.316Z,3.23
2022-08-05T14:53:02.781Z,5.29
2022-08-05T14:54:28.503Z,2.99
2022-08-05T14:55:15.445Z,2.89
2022-08-05T14:56:22.755Z,3.06
2022-08-05T14:57:25.044Z,3.34
2022-08-05T14:58:31.086Z,3.80
2022-08-05T14:59:35.397Z,4.13
2022-08-05T15:00:59.253Z,3.35
2022-08-05T15:01:48.871Z,2.89